KHIO

Portland-Hillsboro Airport

Portland, Oregon, USA
KHIO 151120Z 1512/1612 00000KT 5SM FU BKN040 FM151600 VRB02KT 6SM FU BKN060 FM151900 33003KT P6SM BKN060
Issued Valid From Valid To
Aug-15 @ 11:20 UTC
(an hour ago)
Aug-15 @ 12:00 UTC
(41 minutes ago)
Aug-16 @ 12:00 UTC
(in 23 hours)
Aug-15 @ 12:00 to Aug-15 @ 16:00
KHIO 151120Z 1512/1612 00000KT 5SM FU BKN040
Visibility Clouds Conditions
5 miles
  • Broken at 4,000' AGL
  • Smoke
From Aug-15 @ 16:00 to Aug-15 @ 19:00
FM151600 VRB02KT 6SM FU BKN060
Wind Visibility Clouds Conditions
Variable at 2 knots 6 miles
  • Broken at 6,000' AGL
  • Smoke
From Aug-15 @ 19:00 to Aug-16 @ 12:00
FM151900 33003KT P6SM BKN060
Wind Visibility Clouds
330° at 3 knots Greater than 6 miles
  • Broken at 6,000' AGL
KHIO 151120Z 1512/1612 00000KT 5SM FU BKN040 FM151600 VRB02KT 6SM FU BKN060 FM151900 33003KT P6SM BKN060
Issued Aug-15 @ 11:20 UTC
(an hour ago)
Valid From Aug-15 @ 12:00 UTC
(41 minutes ago)
Valid To Aug-16 @ 12:00 UTC
(in 23 hours)
Aug-15 @ 12:00 - Aug-15 @ 16:00
Clouds
  • Broken at 4,000' AGL
Conditions
  • Smoke
From Aug-15 @ 16:00 - Aug-15 @ 19:00
Wind Visibility
Variable at 2 knots 6 miles
Clouds
  • Broken at 6,000' AGL
Conditions
  • Smoke
From Aug-15 @ 19:00 - Aug-16 @ 12:00
Wind Visibility
330° at 3 knots Greater than 6 miles
Clouds
  • Broken at 6,000' AGL